Time,TemperatureF,DewpointF,PressureIn,WindDirection,WindDirectionDegrees,WindSpeedMPH,WindSpeedGustMPH,Humidity,HourlyPrecipIn,Conditions,Clouds,dailyrainin,SoftwareType,DateUTC
2013-09-29 00:01:00,55.0,54.2,30.17,NW,315,0.0,0.0,97,0.00,,---,0.00,VWS V14.00,2013-09-29 04:01:00,
2013-09-29 00:02:00,54.8,54.0,30.17,NW,315,0.0,0.0,97,0.00,,---,0.00,VWS V14.00,2013-09-29 04:02:00,
2013-09-29 00:07:00,54.6,53.8,30.17,NW,315,0.0,0.0,97,0.00,,---,0.00,VWS V14.00,2013-09-29 04:07:00,
2013-09-29 00:12:00,54.5,53.7,30.18,NW,315,0.0,0.0,97,0.00,,---,0.00,VWS V14.00,2013-09-29 04:12:00,
2013-09-29 00:17:00,54.3,53.5,30.18,NW,315,0.0,0.0,97,0.00,,---,0.00,VWS V14.00,2013-09-29 04:17:00,
2013-09-29 00:22:00,54.1,53.5,30.18,NW,315,0.0,0.0,98,0.00,,---,0.00,VWS V14.00,2013-09-29 04:22:00,
2013-09-29 00:27:00,54.1,53.5,30.18,NW,315,0.0,0.0,98,0.00,,---,0.00,VWS V14.00,2013-09-29 04:27:00,
2013-09-29 00:32:00,54.1,53.5,30.18,NW,315,0.0,0.0,98,0.00,,---,0.00,VWS V14.00,2013-09-29 04:32:00,
2013-09-29 00:37:00,54.1,53.5,30.18,NW,315,0.0,0.0,98,0.00,,---,0.00,VWS V14.00,2013-09-29 04:37:00,
2013-09-29 00:42:00,54.1,53.5,30.18,NW,315,0.0,0.0,98,0.00,,---,0.00,VWS V14.00,2013-09-29 04:42:00,
2013-09-29 00:47:00,54.1,53.5,30.18,NW,315,0.0,0.0,98,0.00,,---,0.00,VWS V14.00,2013-09-29 04:47:00,
2013-09-29 00:52:00,54.1,53.8,30.18,NW,315,0.0,0.0,99,0.00,,---,0.00,VWS V14.00,2013-09-29 04:52:00,
2013-09-29 00:57:00,54.3,54.0,30.18,NW,315,0.0,0.0,99,0.00,,---,0.00,VWS V14.00,2013-09-29 04:57:00,
2013-09-29 01:02:00,54.3,54.0,30.18,NW,315,0.0,0.0,99,0.00,,---,0.00,VWS V14.00,2013-09-29 05:02:00,
2013-09-29 01:07:00,54.3,54.0,30.18,NW,315,0.0,0.0,99,0.00,,---,0.00,VWS V14.00,2013-09-29 05:07:00,
2013-09-29 01:12:00,54.3,54.0,30.18,NW,315,0.0,0.0,99,0.00,,---,0.00,VWS V14.00,2013-09-29 05:12:00,
2013-09-29 01:17:00,54.3,54.0,30.18,NW,315,0.0,0.0,99,0.00,,---,0.00,VWS V14.00,2013-09-29 05:17:00,
2013-09-29 01:22:00,54.5,54.2,30.18,NW,315,0.0,0.0,99,0.00,,---,0.00,VWS V14.00,2013-09-29 05:22:00,
2013-09-29 01:27:00,54.5,54.2,30.18,NW,315,0.0,0.0,99,0.00,,---,0.00,VWS V14.00,2013-09-29 05:27:00,
2013-09-29 01:32:00,54.5,54.2,30.18,NW,315,0.0,0.0,99,0.00,,---,0.00,VWS V14.00,2013-09-29 05:32:00,
2013-09-29 01:37:00,54.5,54.2,30.18,NW,315,0.0,0.0,99,0.00,,---,0.00,VWS V14.00,2013-09-29 05:37:00,
2013-09-29 01:42:00,54.6,54.3,30.18,NW,315,0.0,0.0,99,0.00,,---,0.00,VWS V14.00,2013-09-29 05:42:00,
2013-09-29 01:47:00,54.6,54.3,30.18,NW,315,0.0,0.0,99,0.00,,---,0.00,VWS V14.00,2013-09-29 05:47:00,
2013-09-29 01:52:00,54.6,54.3,30.18,NW,315,0.0,0.0,99,0.00,,---,0.00,VWS V14.00,2013-09-29 05:52:00,
2013-09-29 01:57:00,54.6,54.3,30.18,NW,315,0.0,0.0,99,0.00,,---,0.00,VWS V14.00,2013-09-29 05:57:00,
2013-09-29 02:02:00,54.6,54.3,30.18,NW,315,0.0,0.0,99,0.00,,---,0.00,VWS V14.00,2013-09-29 06:02:00,
2013-09-29 02:07:00,54.6,54.3,30.18,NW,315,0.0,0.0,99,0.00,,---,0.00,VWS V14.00,2013-09-29 06:07:00,
2013-09-29 02:12:00,54.8,54.5,30.18,NW,315,0.0,0.0,99,0.00,,---,0.00,VWS V14.00,2013-09-29 06:12:00,
2013-09-29 02:17:00,54.6,54.3,30.18,NW,315,0.0,0.0,99,0.00,,---,0.00,VWS V14.00,2013-09-29 06:17:00,
2013-09-29 02:22:00,54.6,54.3,30.18,NW,315,0.0,0.0,99,0.00,,---,0.00,VWS V14.00,2013-09-29 06:22:00,
2013-09-29 02:27:00,54.6,54.3,30.18,NW,315,0.0,0.0,99,0.00,,---,0.00,VWS V14.00,2013-09-29 06:27:00,
2013-09-29 02:32:00,54.8,54.5,30.18,NW,315,0.0,0.0,99,0.00,,---,0.00,VWS V14.00,2013-09-29 06:32:00,
2013-09-29 02:37:00,54.6,54.3,30.17,NW,315,0.0,0.0,99,0.00,,---,0.00,VWS V14.00,2013-09-29 06:37:00,
2013-09-29 02:42:00,54.6,54.3,30.17,NW,315,0.0,0.0,99,0.00,,---,0.00,VWS V14.00,2013-09-29 06:42:00,
2013-09-29 02:47:00,54.6,54.3,30.17,NW,315,0.0,0.0,99,0.00,,---,0.00,VWS V14.00,2013-09-29 06:47:00,
2013-09-29 02:52:00,54.6,54.3,30.17,NW,315,0.0,0.0,99,0.00,,---,0.00,VWS V14.00,2013-09-29 06:52:00,
2013-09-29 02:57:00,54.6,54.3,30.17,NW,315,0.0,0.0,99,0.00,,---,0.00,VWS V14.00,2013-09-29 06:57:00,
2013-09-29 03:02:00,54.6,54.3,30.17,NW,315,0.0,0.0,99,0.00,,---,0.00,VWS V14.00,2013-09-29 07:02:00,
2013-09-29 03:07:00,54.6,54.3,30.17,NW,315,0.0,0.0,99,0.00,,---,0.00,VWS V14.00,2013-09-29 07:07:00,
2013-09-29 03:12:00,54.6,54.3,30.17,NW,315,0.0,0.0,99,0.00,,---,0.00,VWS V14.00,2013-09-29 07:12:00,
2013-09-29 03:17:00,54.6,54.3,30.17,NW,315,0.0,0.0,99,0.00,,---,0.00,VWS V14.00,2013-09-29 07:17:00,
2013-09-29 03:23:00,54.6,54.3,30.17,NW,315,0.0,0.0,99,0.00,,---,0.00,VWS V14.00,2013-09-29 07:23:00,
2013-09-29 03:28:00,54.6,54.3,30.17,NW,315,0.0,0.0,99,0.00,,---,0.00,VWS V14.00,2013-09-29 07:28:00,
2013-09-29 03:33:00,54.6,54.3,30.17,NW,315,0.0,0.0,99,0.00,,---,0.00,VWS V14.00,2013-09-29 07:33:00,
2013-09-29 03:38:00,54.6,54.3,30.16,NW,315,0.0,0.0,99,0.00,,---,0.00,VWS V14.00,2013-09-29 07:38:00,
2013-09-29 03:43:00,54.6,54.3,30.16,NW,315,0.0,0.0,99,0.00,,---,0.00,VWS V14.00,2013-09-29 07:43:00,
2013-09-29 03:48:00,54.5,54.2,30.16,NW,315,0.0,0.0,99,0.00,,---,0.00,VWS V14.00,2013-09-29 07:48:00,
2013-09-29 03:53:00,54.1,53.8,30.16,NW,315,0.0,0.0,99,0.00,,---,0.00,VWS V14.00,2013-09-29 07:53:00,
2013-09-29 03:58:00,53.9,53.3,30.16,NW,315,0.0,0.0,98,0.00,,---,0.00,VWS V14.00,2013-09-29 07:58:00,
2013-09-29 04:03:00,53.7,53.2,30.16,NW,315,0.0,0.0,98,0.00,,---,0.00,VWS V14.00,2013-09-29 08:03:00,
2013-09-29 04:08:00,53.4,52.8,30.16,NW,315,0.0,0.0,98,0.00,,---,0.00,VWS V14.00,2013-09-29 08:08:00,
2013-09-29 04:13:00,53.2,52.7,30.15,NW,315,0.0,0.0,98,0.00,,---,0.00,VWS V14.00,2013-09-29 08:13:00,
2013-09-29 04:18:00,52.8,52.5,30.15,NW,315,0.0,0.0,99,0.00,,---,0.00,VWS V14.00,2013-09-29 08:18:00,
2013-09-29 04:23:00,52.7,52.4,30.15,NW,315,0.0,0.0,99,0.00,,---,0.00,VWS V14.00,2013-09-29 08:23:00,
2013-09-29 04:28:00,52.5,52.2,30.15,NW,315,0.0,0.0,99,0.00,,---,0.00,VWS V14.00,2013-09-29 08:28:00,
2013-09-29 04:33:00,52.5,52.2,30.15,NW,315,0.0,0.0,99,0.00,,---,0.00,VWS V14.00,2013-09-29 08:33:00,
2013-09-29 04:38:00,52.3,52.0,30.15,NW,315,0.0,0.0,99,0.00,,---,0.00,VWS V14.00,2013-09-29 08:38:00,
2013-09-29 04:43:00,52.3,52.0,30.15,NW,315,0.0,0.0,99,0.00,,---,0.00,VWS V14.00,2013-09-29 08:43:00,
2013-09-29 04:48:00,52.1,51.8,30.15,NW,315,0.0,0.0,99,0.00,,---,0.00,VWS V14.00,2013-09-29 08:48:00,
2013-09-29 04:53:00,52.1,51.8,30.15,NW,315,0.0,0.0,99,0.00,,---,0.00,VWS V14.00,2013-09-29 08:53:00,
2013-09-29 04:58:00,52.1,51.8,30.15,NW,315,0.0,0.0,99,0.00,,---,0.00,VWS V14.00,2013-09-29 08:58:00,
2013-09-29 05:03:00,52.3,52.3,30.15,NW,315,0.0,0.0,100,0.00,,---,0.00,VWS V14.00,2013-09-29 09:03:00,
2013-09-29 05:08:00,52.3,52.3,30.15,NW,315,0.0,0.0,100,0.00,,---,0.00,VWS V14.00,2013-09-29 09:08:00,
2013-09-29 05:13:00,52.3,52.3,30.15,NW,315,0.0,0.0,100,0.00,,---,0.00,VWS V14.00,2013-09-29 09:13:00,
2013-09-29 05:18:00,52.5,52.5,30.15,NW,315,0.0,0.0,100,0.00,,---,0.00,VWS V14.00,2013-09-29 09:18:00,
2013-09-29 05:23:00,52.7,52.7,30.15,NW,315,0.0,0.0,100,0.00,,---,0.00,VWS V14.00,2013-09-29 09:23:00,
2013-09-29 05:28:00,52.7,52.7,30.15,NW,315,0.0,0.0,100,0.00,,---,0.00,VWS V14.00,2013-09-29 09:28:00,
2013-09-29 05:33:00,52.8,52.8,30.15,NW,315,0.0,0.0,100,0.00,,---,0.00,VWS V14.00,2013-09-29 09:33:00,
2013-09-29 05:38:00,52.8,52.8,30.14,NW,315,0.0,0.0,100,0.00,,---,0.00,VWS V14.00,2013-09-29 09:38:00,
2013-09-29 05:43:00,52.8,52.8,30.14,NW,315,0.0,0.0,100,0.00,,---,0.00,VWS V14.00,2013-09-29 09:43:00,
2013-09-29 05:48:00,52.8,52.8,30.14,NW,315,0.0,0.0,100,0.00,,---,0.00,VWS V14.00,2013-09-29 09:48:00,
2013-09-29 05:53:00,52.8,52.8,30.14,NW,315,0.0,0.0,100,0.00,,---,0.00,VWS V14.00,2013-09-29 09:53:00,
2013-09-29 05:58:00,52.8,52.8,30.14,NW,315,0.0,0.0,100,0.00,,---,0.00,VWS V14.00,2013-09-29 09:58:00,
2013-09-29 06:03:00,52.8,52.8,30.15,NW,315,0.0,0.0,100,0.00,,---,0.00,VWS V14.00,2013-09-29 10:03:00,
2013-09-29 06:08:00,52.8,52.8,30.14,NW,315,0.0,0.0,100,0.00,,---,0.00,VWS V14.00,2013-09-29 10:08:00,
2013-09-29 06:13:00,52.8,52.8,30.15,NW,315,0.0,0.0,100,0.00,,---,0.00,VWS V14.00,2013-09-29 10:13:00,
2013-09-29 06:18:00,52.8,52.8,30.15,NW,315,0.0,0.0,100,0.00,,---,0.00,VWS V14.00,2013-09-29 10:18:00,
2013-09-29 06:23:00,52.8,52.8,30.15,NW,315,0.0,0.0,100,0.00,,---,0.00,VWS V14.00,2013-09-29 10:23:00,
2013-09-29 06:28:00,52.8,52.8,30.15,NW,315,0.0,0.0,100,0.00,,---,0.00,VWS V14.00,2013-09-29 10:28:00,
2013-09-29 06:33:00,52.8,52.8,30.15,NW,315,0.0,0.0,100,0.00,,---,0.00,VWS V14.00,2013-09-29 10:33:00,
2013-09-29 06:38:00,52.8,52.8,30.15,NW,315,0.0,0.0,100,0.00,,---,0.00,VWS V14.00,2013-09-29 10:38:00,
2013-09-29 06:43:00,52.8,52.8,30.16,NW,315,0.0,0.0,100,0.00,,---,0.00,VWS V14.00,2013-09-29 10:43:00,
2013-09-29 06:48:00,52.8,52.8,30.16,NW,315,0.0,0.0,100,0.00,,---,0.00,VWS V14.00,2013-09-29 10:48:00,
2013-09-29 06:53:00,52.7,52.7,30.16,NW,315,0.0,0.0,100,0.00,,---,0.00,VWS V14.00,2013-09-29 10:53:00,
2013-09-29 06:58:00,52.7,52.7,30.16,NW,315,0.0,0.0,100,0.00,,---,0.00,VWS V14.00,2013-09-29 10:58:00,
2013-09-29 07:03:00,52.5,52.5,30.16,NW,315,0.0,0.0,100,0.00,,---,0.00,VWS V14.00,2013-09-29 11:03:00,
2013-09-29 07:09:00,52.5,52.5,30.16,NW,315,0.0,0.0,100,0.00,,---,0.00,VWS V14.00,2013-09-29 11:09:00,
2013-09-29 07:14:00,52.5,52.5,30.16,NW,315,0.0,0.0,100,0.00,,---,0.00,VWS V14.00,2013-09-29 11:14:00,
2013-09-29 07:19:00,52.3,52.3,30.16,NW,315,0.0,0.0,100,0.00,,---,0.00,VWS V14.00,2013-09-29 11:19:00,
2013-09-29 07:24:00,52.1,52.1,30.16,NW,315,0.0,0.0,100,0.00,,---,0.00,VWS V14.00,2013-09-29 11:24:00,
2013-09-29 07:29:00,52.1,52.1,30.16,NW,315,0.0,0.0,100,0.00,,---,0.00,VWS V14.00,2013-09-29 11:29:00,
2013-09-29 07:34:00,51.9,51.9,30.16,NW,315,0.0,0.0,100,0.00,,---,0.00,VWS V14.00,2013-09-29 11:34:00,
2013-09-29 07:39:00,51.9,51.9,30.16,NW,315,0.0,0.0,100,0.00,,---,0.00,VWS V14.00,2013-09-29 11:39:00,
2013-09-29 07:44:00,51.9,51.9,30.16,NW,315,0.0,0.0,100,0.00,,---,0.00,VWS V14.00,2013-09-29 11:44:00,
2013-09-29 07:49:00,52.1,52.1,30.16,NW,315,0.0,0.0,100,0.00,,---,0.00,VWS V14.00,2013-09-29 11:49:00,
2013-09-29 07:54:00,52.3,52.3,30.16,NW,315,0.0,0.0,100,0.00,,---,0.00,VWS V14.00,2013-09-29 11:54:00,
2013-09-29 07:59:00,52.3,52.3,30.16,NW,315,0.0,0.0,100,0.00,,---,0.00,VWS V14.00,2013-09-29 11:59:00,
2013-09-29 08:04:00,52.3,52.3,30.16,NW,315,0.0,0.0,100,0.00,,---,0.00,VWS V14.00,2013-09-29 12:04:00,
2013-09-29 08:09:00,52.7,52.7,30.16,NW,315,0.0,0.0,100,0.00,,---,0.00,VWS V14.00,2013-09-29 12:09:00,
2013-09-29 08:14:00,52.8,52.8,30.16,NW,315,0.0,0.0,100,0.00,,---,0.00,VWS V14.00,2013-09-29 12:14:00,
2013-09-29 08:19:00,53.0,53.0,30.16,NW,315,0.0,0.0,100,0.00,,---,0.00,VWS V14.00,2013-09-29 12:19:00,
2013-09-29 08:24:00,53.7,53.7,30.16,NW,315,0.0,0.0,100,0.00,,---,0.00,VWS V14.00,2013-09-29 12:24:00,
2013-09-29 08:29:00,54.1,54.1,30.16,NW,315,0.0,0.0,100,0.00,,---,0.00,VWS V14.00,2013-09-29 12:29:00,
2013-09-29 08:34:00,54.5,54.5,30.16,NW,315,0.0,0.0,100,0.00,,---,0.00,VWS V14.00,2013-09-29 12:34:00,
2013-09-29 08:39:00,54.8,54.8,30.16,NW,315,0.0,0.0,100,0.00,,---,0.00,VWS V14.00,2013-09-29 12:39:00,
2013-09-29 08:44:00,55.0,55.0,30.16,NW,315,0.0,0.0,100,0.00,,---,0.00,VWS V14.00,2013-09-29 12:44:00,
2013-09-29 08:49:00,55.2,55.2,30.16,NW,315,0.0,0.0,100,0.00,,---,0.00,VWS V14.00,2013-09-29 12:49:00,
2013-09-29 08:54:00,55.4,55.4,30.16,NW,315,0.0,0.0,100,0.00,,---,0.00,VWS V14.00,2013-09-29 12:54:00,
2013-09-29 08:59:00,55.4,55.4,30.16,NW,315,0.0,0.0,100,0.00,,---,0.00,VWS V14.00,2013-09-29 12:59:00,
2013-09-29 09:04:00,55.7,55.7,30.16,NW,315,0.0,0.0,100,0.00,,---,0.00,VWS V14.00,2013-09-29 13:04:00,
2013-09-29 09:09:00,56.1,56.1,30.16,NW,315,0.0,0.0,100,0.00,,---,0.00,VWS V14.00,2013-09-29 13:09:00,
2013-09-29 09:14:00,56.3,56.3,30.16,NW,315,0.0,0.0,100,0.00,,---,0.00,VWS V14.00,2013-09-29 13:14:00,
2013-09-29 09:19:00,56.6,56.6,30.16,NW,315,0.0,0.0,100,0.00,,---,0.00,VWS V14.00,2013-09-29 13:19:00,
2013-09-29 09:24:00,57.3,57.3,30.16,NW,315,0.0,0.0,100,0.00,,---,0.00,VWS V14.00,2013-09-29 13:24:00,
2013-09-29 09:29:00,57.7,57.7,30.16,NW,315,0.0,0.0,100,0.00,,---,0.00,VWS V14.00,2013-09-29 13:29:00,
2013-09-29 09:34:00,58.1,57.8,30.16,NW,315,0.0,0.0,99,0.00,,---,0.00,VWS V14.00,2013-09-29 13:34:00,
2013-09-29 09:39:00,58.8,58.2,30.16,NW,315,0.0,0.0,98,0.00,,---,0.00,VWS V14.00,2013-09-29 13:39:00,
2013-09-29 09:44:00,58.8,58.0,30.16,NNW,338,0.0,0.0,97,0.00,,---,0.00,VWS V14.00,2013-09-29 13:44:00,
2013-09-29 09:50:00,58.8,57.7,30.16,NNW,338,0.0,0.0,96,0.00,,---,0.00,VWS V14.00,2013-09-29 13:50:00,
2013-09-29 09:55:00,59.3,57.9,30.16,NNW,338,0.0,0.0,95,0.00,,---,0.00,VWS V14.00,2013-09-29 13:55:00,
2013-09-29 10:00:00,59.7,58.3,30.16,NW,315,0.0,0.0,95,0.00,,---,0.00,VWS V14.00,2013-09-29 14:00:00,
2013-09-29 10:05:00,60.0,58.6,30.16,NW,315,0.0,0.0,95,0.00,,---,0.00,VWS V14.00,2013-09-29 14:05:00,
2013-09-29 10:10:00,60.6,58.9,30.16,NW,315,0.0,0.0,94,0.00,,---,0.00,VWS V14.00,2013-09-29 14:10:00,
2013-09-29 10:15:00,60.9,59.2,30.16,South,180,0.0,0.0,94,0.00,,---,0.00,VWS V14.00,2013-09-29 14:15:00,
2013-09-29 10:20:00,61.3,59.6,30.16,SSE,158,0.0,0.0,94,0.00,,---,0.00,VWS V14.00,2013-09-29 14:20:00,
2013-09-29 10:25:00,62.0,59.7,30.16,SW,225,0.0,0.0,92,0.00,,---,0.00,VWS V14.00,2013-09-29 14:25:00,
2013-09-29 10:30:00,62.4,59.7,30.16,ESE,112,0.0,0.0,91,0.00,,---,0.00,VWS V14.00,2013-09-29 14:30:00,
2013-09-29 10:35:00,62.2,59.2,30.16,SE,135,0.0,0.0,90,0.00,,---,0.00,VWS V14.00,2013-09-29 14:35:00,
2013-09-29 10:40:00,62.4,59.1,30.15,NE,45,0.0,0.0,89,0.00,,---,0.00,VWS V14.00,2013-09-29 14:40:00,
2013-09-29 10:45:00,62.4,58.8,30.15,WSW,248,0.0,0.0,88,0.00,,---,0.00,VWS V14.00,2013-09-29 14:45:00,
2013-09-29 10:50:00,63.3,59.4,30.15,ENE,68,0.0,0.0,87,0.00,,---,0.00,VWS V14.00,2013-09-29 14:50:00,
2013-09-29 10:55:00,63.5,59.2,30.15,SSE,158,0.0,0.0,86,0.00,,---,0.00,VWS V14.00,2013-09-29 14:55:00,
2013-09-29 11:00:00,63.6,59.3,30.15,SE,135,0.0,0.0,86,0.00,,---,0.00,VWS V14.00,2013-09-29 15:00:00,
2013-09-29 11:05:00,64.7,60.4,30.15,SE,135,0.0,0.0,86,0.00,,---,0.00,VWS V14.00,2013-09-29 15:05:00,
2013-09-29 11:10:00,65.1,60.5,30.14,SE,135,0.0,0.0,85,0.00,,---,0.00,VWS V14.00,2013-09-29 15:10:00,
2013-09-29 11:15:00,65.1,60.2,30.14,South,180,0.0,0.0,84,0.00,,---,0.00,VWS V14.00,2013-09-29 15:15:00,
2013-09-29 11:20:00,65.1,59.8,30.14,SSW,202,0.0,0.0,83,0.00,,---,0.00,VWS V14.00,2013-09-29 15:20:00,
2013-09-29 11:25:00,65.1,60.2,30.14,SSE,158,0.0,0.0,84,0.00,,---,0.00,VWS V14.00,2013-09-29 15:25:00,
2013-09-29 11:30:00,65.8,60.8,30.14,South,180,0.0,0.0,84,0.00,,---,0.00,VWS V14.00,2013-09-29 15:30:00,
2013-09-29 11:35:00,67.2,61.9,30.14,SE,135,0.0,0.0,83,0.00,,---,0.00,VWS V14.00,2013-09-29 15:35:00,
2013-09-29 11:40:00,68.5,62.5,30.14,West,270,0.0,0.0,81,0.00,,---,0.00,VWS V14.00,2013-09-29 15:40:00,
2013-09-29 11:45:00,69.0,62.6,30.14,ESE,112,0.0,0.0,80,0.00,,---,0.00,VWS V14.00,2013-09-29 15:45:00,
2013-09-29 11:50:00,69.2,62.1,30.14,SSE,158,1.1,1.1,78,0.00,,---,0.00,VWS V14.00,2013-09-29 15:50:00,
2013-09-29 11:55:00,69.4,62.6,30.14,WSW,248,0.0,1.1,79,0.00,,---,0.00,VWS V14.00,2013-09-29 15:55:00,
2013-09-29 12:00:00,69.9,62.4,30.14,SSE,158,0.0,0.0,77,0.00,,---,0.00,VWS V14.00,2013-09-29 16:00:00,
2013-09-29 12:05:00,69.9,62.4,30.14,South,180,0.0,0.0,77,0.00,,---,0.00,VWS V14.00,2013-09-29 16:05:00,
2013-09-29 12:10:00,70.1,62.6,30.13,South,180,0.0,0.0,77,0.00,,---,0.00,VWS V14.00,2013-09-29 16:10:00,
2013-09-29 12:15:00,70.3,62.8,30.13,NE,45,0.0,0.0,77,0.00,,---,0.00,VWS V14.00,2013-09-29 16:15:00,
2013-09-29 12:21:00,70.3,62.4,30.13,SSW,202,0.0,0.0,76,0.00,,---,0.00,VWS V14.00,2013-09-29 16:21:00,
2013-09-29 12:26:00,70.5,62.6,30.13,WSW,248,0.0,0.0,76,0.00,,---,0.00,VWS V14.00,2013-09-29 16:26:00,
2013-09-29 12:31:00,70.8,62.9,30.13,South,180,0.0,0.0,76,0.00,,---,0.00,VWS V14.00,2013-09-29 16:31:00,
2013-09-29 12:36:00,70.8,62.5,30.13,ESE,112,0.0,0.0,75,0.00,,---,0.00,VWS V14.00,2013-09-29 16:36:00,
2013-09-29 12:41:00,70.5,62.2,30.13,SSW,202,0.0,0.0,75,0.00,,---,0.00,VWS V14.00,2013-09-29 16:41:00,
2013-09-29 12:46:00,70.5,62.6,30.13,SW,225,0.0,0.6,76,0.00,,---,0.00,VWS V14.00,2013-09-29 16:46:00,
2013-09-29 12:51:00,70.8,62.9,30.12,WSW,248,0.0,0.0,76,0.00,,---,0.00,VWS V14.00,2013-09-29 16:51:00,
2013-09-29 12:56:00,71.4,63.1,30.12,WSW,248,0.0,0.0,75,0.00,,---,0.00,VWS V14.00,2013-09-29 16:56:00,
2013-09-29 13:01:00,71.6,63.3,30.12,SE,135,0.4,0.4,75,0.00,,---,0.00,VWS V14.00,2013-09-29 17:01:00,
2013-09-29 13:06:00,71.7,62.6,30.11,ENE,68,0.0,0.4,73,0.00,,---,0.00,VWS V14.00,2013-09-29 17:06:00,
2013-09-29 13:11:00,71.4,62.7,30.11,ESE,112,0.0,0.0,74,0.00,,---,0.00,VWS V14.00,2013-09-29 17:11:00,
2013-09-29 13:16:00,71.7,63.0,30.11,SW,225,0.0,0.0,74,0.00,,---,0.00,VWS V14.00,2013-09-29 17:16:00,
2013-09-29 13:21:00,71.9,62.8,30.11,NE,45,0.0,0.0,73,0.00,,---,0.00,VWS V14.00,2013-09-29 17:21:00,
2013-09-29 13:26:00,70.8,61.3,30.10,SW,225,0.0,1.5,72,0.00,,---,0.00,VWS V14.00,2013-09-29 17:26:00,
2013-09-29 13:31:00,70.3,60.9,30.10,ENE,68,0.0,0.0,72,0.00,,---,0.00,VWS V14.00,2013-09-29 17:31:00,
2013-09-29 13:36:00,70.3,61.6,30.10,SSW,202,0.0,0.0,74,0.00,,---,0.00,VWS V14.00,2013-09-29 17:36:00,
2013-09-29 13:41:00,71.2,62.9,30.10,SW,225,0.0,0.0,75,0.00,,---,0.00,VWS V14.00,2013-09-29 17:41:00,
2013-09-29 13:46:00,71.4,62.7,30.09,East,90,0.0,0.0,74,0.00,,---,0.00,VWS V14.00,2013-09-29 17:46:00,
2013-09-29 13:51:00,71.7,63.0,30.09,SE,135,0.0,0.0,74,0.00,,---,0.00,VWS V14.00,2013-09-29 17:51:00,
2013-09-29 13:56:00,71.7,62.2,30.09,ENE,68,0.0,0.0,72,0.00,,---,0.00,VWS V14.00,2013-09-29 17:56:00,
2013-09-29 14:01:00,71.2,62.1,30.09,NW,315,0.0,0.0,73,0.00,,---,0.00,VWS V14.00,2013-09-29 18:01:00,
2013-09-29 14:06:00,70.8,61.7,30.09,NW,315,0.0,0.0,73,0.00,,---,0.00,VWS V14.00,2013-09-29 18:06:00,
2013-09-29 14:11:00,71.4,62.7,30.08,WSW,248,0.0,0.0,74,0.00,,---,0.00,VWS V14.00,2013-09-29 18:11:00,
2013-09-29 14:16:00,71.7,62.6,30.08,South,180,0.0,0.0,73,0.00,,---,0.00,VWS V14.00,2013-09-29 18:16:00,
2013-09-29 14:21:00,71.4,61.9,30.08,ESE,112,0.0,0.0,72,0.00,,---,0.00,VWS V14.00,2013-09-29 18:21:00,
2013-09-29 14:26:00,71.4,62.7,30.07,South,180,0.0,0.0,74,0.00,,---,0.00,VWS V14.00,2013-09-29 18:26:00,
2013-09-29 14:31:00,72.1,63.8,30.08,SW,225,0.0,0.0,75,0.00,,---,0.00,VWS V14.00,2013-09-29 18:31:00,
2013-09-29 14:36:00,72.6,63.5,30.07,WSW,248,0.0,0.0,73,0.00,,---,0.00,VWS V14.00,2013-09-29 18:36:00,
2013-09-29 14:41:00,72.5,62.6,30.07,SE,135,0.0,0.0,71,0.00,,---,0.00,VWS V14.00,2013-09-29 18:41:00,
2013-09-29 14:46:00,72.5,62.6,30.07,South,180,0.0,0.0,71,0.00,,---,0.00,VWS V14.00,2013-09-29 18:46:00,
2013-09-29 14:51:00,72.3,61.6,30.06,NE,45,0.0,0.0,69,0.00,,---,0.00,VWS V14.00,2013-09-29 18:51:00,
2013-09-29 14:56:00,71.7,61.8,30.06,SSW,202,0.0,0.0,71,0.00,,---,0.00,VWS V14.00,2013-09-29 18:56:00,
2013-09-29 15:01:00,72.3,62.4,30.06,ENE,68,0.0,0.0,71,0.00,,---,0.00,VWS V14.00,2013-09-29 19:01:00,
2013-09-29 15:06:00,72.6,62.3,30.05,SSW,202,0.0,0.0,70,0.00,,---,0.00,VWS V14.00,2013-09-29 19:06:00,
2013-09-29 15:11:00,73.2,63.2,30.05,SSW,202,0.0,0.0,71,0.00,,---,0.00,VWS V14.00,2013-09-29 19:11:00,
2013-09-29 15:16:00,73.4,63.4,30.05,SW,225,0.0,0.0,71,0.00,,---,0.00,VWS V14.00,2013-09-29 19:16:00,
2013-09-29 15:21:00,73.2,63.2,30.05,SE,135,0.0,0.0,71,0.00,,---,0.00,VWS V14.00,2013-09-29 19:21:00,
2013-09-29 15:26:00,72.8,63.3,30.05,WSW,248,0.0,0.0,72,0.00,,---,0.00,VWS V14.00,2013-09-29 19:26:00,
2013-09-29 15:32:00,72.6,63.1,30.05,SW,225,0.0,0.0,72,0.00,,---,0.00,VWS V14.00,2013-09-29 19:32:00,
2013-09-29 15:37:00,72.5,63.0,30.05,WSW,248,0.0,0.0,72,0.00,,---,0.00,VWS V14.00,2013-09-29 19:37:00,
2013-09-29 15:42:00,72.1,63.0,30.05,South,180,0.0,0.0,73,0.00,,---,0.00,VWS V14.00,2013-09-29 19:42:00,
2013-09-29 15:47:00,71.9,63.2,30.04,South,180,0.0,0.0,74,0.00,,---,0.00,VWS V14.00,2013-09-29 19:47:00,
2013-09-29 15:48:00,71.7,62.6,30.05,WSW,248,0.0,0.0,73,0.00,,---,0.00,VWS V14.00,2013-09-29 19:48:00,
2013-09-29 15:53:00,70.8,61.7,30.04,SW,225,0.6,0.6,73,0.00,,---,0.00,VWS V14.00,2013-09-29 19:53:00,
2013-09-29 15:58:00,69.9,61.2,30.05,SSW,202,0.0,0.8,74,0.00,,---,0.00,VWS V14.00,2013-09-29 19:58:00,
2013-09-29 16:03:00,69.6,61.3,30.05,NW,315,0.0,0.0,75,0.00,,---,0.00,VWS V14.00,2013-09-29 20:03:00,
2013-09-29 16:08:00,69.0,60.8,30.04,SE,135,0.0,0.0,75,0.00,,---,0.00,VWS V14.00,2013-09-29 20:08:00,
2013-09-29 16:13:00,68.7,60.8,30.04,SSW,202,1.7,1.7,76,0.00,,---,0.00,VWS V14.00,2013-09-29 20:13:00,
2013-09-29 16:18:00,68.5,60.6,30.04,SW,225,0.0,1.7,76,0.00,,---,0.00,VWS V14.00,2013-09-29 20:18:00,
2013-09-29 16:23:00,68.5,60.6,30.04,SE,135,0.0,0.0,76,0.00,,---,0.00,VWS V14.00,2013-09-29 20:23:00,
2013-09-29 16:28:00,68.5,60.6,30.04,West,270,0.0,0.0,76,0.00,,---,0.00,VWS V14.00,2013-09-29 20:28:00,
2013-09-29 16:33:00,68.7,60.8,30.04,SE,135,0.0,0.0,76,0.00,,---,0.00,VWS V14.00,2013-09-29 20:33:00,
2013-09-29 16:38:00,68.7,60.8,30.04,East,90,0.0,0.0,76,0.00,,---,0.00,VWS V14.00,2013-09-29 20:38:00,
2013-09-29 16:43:00,68.5,61.0,30.04,WNW,292,0.0,0.0,77,0.00,,---,0.00,VWS V14.00,2013-09-29 20:43:00,
2013-09-29 16:48:00,68.3,60.8,30.05,SW,225,0.0,0.0,77,0.00,,---,0.00,VWS V14.00,2013-09-29 20:48:00,
2013-09-29 16:53:00,68.3,60.8,30.04,SE,135,0.0,0.0,77,0.00,,---,0.00,VWS V14.00,2013-09-29 20:53:00,
2013-09-29 16:58:00,68.5,61.0,30.04,WSW,248,0.0,2.9,77,0.00,,---,0.00,VWS V14.00,2013-09-29 20:58:00,
2013-09-29 17:03:00,68.5,61.4,30.05,SW,225,0.0,0.0,78,0.00,,---,0.00,VWS V14.00,2013-09-29 21:03:00,
2013-09-29 17:08:00,68.7,61.6,30.05,SE,135,0.0,0.0,78,0.00,,---,0.00,VWS V14.00,2013-09-29 21:08:00,
2013-09-29 17:13:00,68.5,61.0,30.05,SE,135,0.0,0.0,77,0.00,,---,0.00,VWS V14.00,2013-09-29 21:13:00,
2013-09-29 17:18:00,68.3,60.8,30.05,South,180,0.0,0.0,77,0.00,,---,0.00,VWS V14.00,2013-09-29 21:18:00,
2013-09-29 17:23:00,68.1,60.6,30.04,SSW,202,0.0,0.0,77,0.00,,---,0.00,VWS V14.00,2013-09-29 21:23:00,
2013-09-29 17:28:00,68.1,61.0,30.04,SE,135,0.0,0.0,78,0.00,,---,0.00,VWS V14.00,2013-09-29 21:28:00,
2013-09-29 17:33:00,68.1,61.0,30.05,East,90,0.0,0.0,78,0.00,,---,0.00,VWS V14.00,2013-09-29 21:33:00,
2013-09-29 17:39:00,68.1,61.0,30.05,SSE,158,0.0,0.0,78,0.00,,---,0.00,VWS V14.00,2013-09-29 21:39:00,
2013-09-29 17:44:00,67.8,61.1,30.05,WSW,248,0.0,0.0,79,0.00,,---,0.00,VWS V14.00,2013-09-29 21:44:00,
2013-09-29 17:49:00,67.8,61.1,30.05,SW,225,0.0,0.0,79,0.00,,---,0.00,VWS V14.00,2013-09-29 21:49:00,
2013-09-29 17:54:00,67.6,61.2,30.05,ENE,68,0.0,0.0,80,0.00,,---,0.00,VWS V14.00,2013-09-29 21:54:00,
2013-09-29 17:59:00,67.2,60.8,30.05,SW,225,0.0,0.0,80,0.00,,---,0.00,VWS V14.00,2013-09-29 21:59:00,
2013-09-29 18:04:00,66.9,60.5,30.05,SSE,158,0.0,0.0,80,0.00,,---,0.00,VWS V14.00,2013-09-29 22:04:00,
2013-09-29 18:09:00,66.7,60.3,30.05,SE,135,0.0,0.0,80,0.00,,---,0.00,VWS V14.00,2013-09-29 22:09:00,
2013-09-29 18:14:00,66.3,60.3,30.05,SE,135,0.0,0.0,81,0.00,,---,0.00,VWS V14.00,2013-09-29 22:14:00,
2013-09-29 18:19:00,66.3,60.3,30.05,SE,135,0.0,0.0,81,0.00,,---,0.00,VWS V14.00,2013-09-29 22:19:00,
2013-09-29 18:24:00,66.0,60.3,30.06,SE,135,0.0,0.0,82,0.00,,---,0.00,VWS V14.00,2013-09-29 22:24:00,
2013-09-29 18:29:00,65.6,60.3,30.05,SE,135,0.0,0.0,83,0.00,,---,0.00,VWS V14.00,2013-09-29 22:29:00,
2013-09-29 18:34:00,65.3,60.3,30.05,South,180,0.0,0.0,84,0.00,,---,0.00,VWS V14.00,2013-09-29 22:34:00,
2013-09-29 18:39:00,65.1,60.2,30.05,South,180,0.0,0.0,84,0.00,,---,0.00,VWS V14.00,2013-09-29 22:39:00,
2013-09-29 18:44:00,64.9,60.0,30.05,South,180,0.0,0.0,84,0.00,,---,0.00,VWS V14.00,2013-09-29 22:44:00,
2013-09-29 18:49:00,64.5,59.9,30.05,South,180,0.0,0.0,85,0.00,,---,0.00,VWS V14.00,2013-09-29 22:49:00,
2013-09-29 18:54:00,64.2,59.6,30.05,South,180,0.0,0.0,85,0.00,,---,0.00,VWS V14.00,2013-09-29 22:54:00,
2013-09-29 18:59:00,64.0,59.7,30.06,SSE,158,0.0,0.0,86,0.00,,---,0.00,VWS V14.00,2013-09-29 22:59:00,
2013-09-29 19:04:00,63.6,59.3,30.06,SSE,158,0.0,0.0,86,0.00,,---,0.00,VWS V14.00,2013-09-29 23:04:00,
2013-09-29 19:09:00,63.3,59.0,30.06,SSE,158,0.0,0.0,86,0.00,,---,0.00,VWS V14.00,2013-09-29 23:09:00,
2013-09-29 19:14:00,63.1,59.2,30.06,SSE,158,0.0,0.0,87,0.00,,---,0.00,VWS V14.00,2013-09-29 23:14:00,
2013-09-29 19:19:00,62.7,59.1,30.06,SSE,158,0.0,0.0,88,0.00,,---,0.00,VWS V14.00,2013-09-29 23:19:00,
2013-09-29 19:24:00,62.4,58.8,30.06,SSE,158,0.0,0.0,88,0.00,,---,0.00,VWS V14.00,2013-09-29 23:24:00,
2013-09-29 19:29:00,62.2,58.6,30.06,SSE,158,0.0,0.0,88,0.00,,---,0.00,VWS V14.00,2013-09-29 23:29:00,
2013-09-29 19:34:00,61.7,58.4,30.06,SSE,158,0.0,0.0,89,0.00,,---,0.00,VWS V14.00,2013-09-29 23:34:00,
2013-09-29 19:39:00,61.5,58.2,30.06,SSE,158,0.0,0.0,89,0.00,,---,0.00,VWS V14.00,2013-09-29 23:39:00,
2013-09-29 19:44:00,61.3,58.3,30.06,SSE,158,0.0,0.0,90,0.00,,---,0.00,VWS V14.00,2013-09-29 23:44:00,
2013-09-29 19:49:00,61.1,58.2,30.06,SSE,158,0.0,0.0,90,0.00,,---,0.00,VWS V14.00,2013-09-29 23:49:00,
2013-09-29 19:54:00,60.9,58.0,30.06,SSE,158,0.0,0.0,90,0.00,,---,0.00,VWS V14.00,2013-09-29 23:54:00,
2013-09-29 19:59:00,60.9,58.3,30.06,SSE,158,0.0,0.0,91,0.00,,---,0.00,VWS V14.00,2013-09-29 23:59:00,
2013-09-29 20:04:00,60.9,58.3,30.06,SSE,158,0.0,0.0,91,0.00,,---,0.00,VWS V14.00,2013-09-30 00:04:00,
2013-09-29 20:09:00,60.8,58.2,30.06,SSE,158,0.0,0.0,91,0.00,,---,0.00,VWS V14.00,2013-09-30 00:09:00,
2013-09-29 20:14:00,60.8,58.5,30.06,SSE,158,0.0,0.0,92,0.00,,---,0.00,VWS V14.00,2013-09-30 00:14:00,
2013-09-29 20:19:00,60.6,58.3,30.06,SSE,158,0.0,0.0,92,0.00,,---,0.00,VWS V14.00,2013-09-30 00:19:00,
2013-09-29 20:24:00,60.6,58.3,30.06,SSE,158,0.0,0.0,92,0.00,,---,0.00,VWS V14.00,2013-09-30 00:24:00,
2013-09-29 20:29:00,60.4,58.1,30.06,SSE,158,0.0,0.0,92,0.00,,---,0.00,VWS V14.00,2013-09-30 00:29:00,
2013-09-29 20:35:00,60.0,57.7,30.06,SSE,158,0.0,0.0,92,0.00,,---,0.00,VWS V14.00,2013-09-30 00:35:00,
2013-09-29 20:40:00,60.0,58.0,30.06,SSE,158,0.0,0.0,93,0.00,,---,0.00,VWS V14.00,2013-09-30 00:40:00,
2013-09-29 20:45:00,59.9,57.9,30.07,SSE,158,0.0,0.0,93,0.00,,---,0.00,VWS V14.00,2013-09-30 00:45:00,
2013-09-29 20:50:00,59.7,57.7,30.06,SSE,158,0.0,0.0,93,0.00,,---,0.00,VWS V14.00,2013-09-30 00:50:00,
2013-09-29 20:55:00,59.7,57.7,30.06,SSE,158,0.0,0.0,93,0.00,,---,0.00,VWS V14.00,2013-09-30 00:55:00,
2013-09-29 21:00:00,59.5,57.5,30.06,SSE,158,0.0,0.0,93,0.00,,---,0.00,VWS V14.00,2013-09-30 01:00:00,
2013-09-29 21:05:00,59.5,57.5,30.06,SSE,158,0.0,0.0,93,0.00,,---,0.00,VWS V14.00,2013-09-30 01:05:00,
2013-09-29 21:10:00,59.5,57.8,30.06,SSE,158,0.0,0.0,94,0.00,,---,0.00,VWS V14.00,2013-09-30 01:10:00,
2013-09-29 21:15:00,59.5,57.8,30.06,SSE,158,0.0,0.0,94,0.00,,---,0.00,VWS V14.00,2013-09-30 01:15:00,
2013-09-29 21:20:00,59.5,57.8,30.06,SSE,158,0.0,0.0,94,0.00,,---,0.00,VWS V14.00,2013-09-30 01:20:00,
2013-09-29 21:25:00,59.5,57.8,30.07,SSE,158,0.0,0.0,94,0.00,,---,0.00,VWS V14.00,2013-09-30 01:25:00,
2013-09-29 21:30:00,59.5,57.8,30.06,SSE,158,0.0,0.0,94,0.00,,---,0.00,VWS V14.00,2013-09-30 01:30:00,
2013-09-29 21:35:00,59.5,57.8,30.06,SSE,158,0.0,0.0,94,0.00,,---,0.00,VWS V14.00,2013-09-30 01:35:00,
2013-09-29 21:40:00,59.5,58.1,30.06,SSE,158,0.0,0.0,95,0.00,,---,0.00,VWS V14.00,2013-09-30 01:40:00,
2013-09-29 21:45:00,59.3,57.9,30.06,SSE,158,0.0,0.0,95,0.00,,---,0.00,VWS V14.00,2013-09-30 01:45:00,
2013-09-29 21:50:00,59.1,57.7,30.06,SSE,158,0.0,0.0,95,0.00,,---,0.00,VWS V14.00,2013-09-30 01:50:00,
2013-09-29 21:55:00,59.1,57.7,30.06,SSE,158,0.0,0.0,95,0.00,,---,0.00,VWS V14.00,2013-09-30 01:55:00,
2013-09-29 22:00:00,58.8,57.4,30.06,SSE,158,0.0,0.0,95,0.00,,---,0.00,VWS V14.00,2013-09-30 02:00:00,
2013-09-29 22:05:00,58.8,57.4,30.06,SSE,158,0.0,0.0,95,0.00,,---,0.00,VWS V14.00,2013-09-30 02:05:00,
2013-09-29 22:10:00,58.8,57.4,30.05,SSE,158,0.0,0.0,95,0.00,,---,0.00,VWS V14.00,2013-09-30 02:10:00,
2013-09-29 22:15:00,58.8,57.4,30.06,SSE,158,0.0,0.0,95,0.00,,---,0.00,VWS V14.00,2013-09-30 02:15:00,
2013-09-29 22:20:00,58.6,57.2,30.06,SSE,158,0.0,0.0,95,0.00,,---,0.00,VWS V14.00,2013-09-30 02:20:00,
2013-09-29 22:25:00,58.6,57.5,30.06,SSE,158,0.0,0.0,96,0.00,,---,0.00,VWS V14.00,2013-09-30 02:25:00,
2013-09-29 22:30:00,58.4,57.3,30.06,SSE,158,0.0,0.0,96,0.00,,---,0.00,VWS V14.00,2013-09-30 02:30:00,
2013-09-29 22:35:00,58.4,57.3,30.06,SSE,158,0.0,0.0,96,0.00,,---,0.00,VWS V14.00,2013-09-30 02:35:00,
2013-09-29 22:40:00,58.4,57.3,30.06,SSE,158,0.0,0.0,96,0.00,,---,0.00,VWS V14.00,2013-09-30 02:40:00,
2013-09-29 22:45:00,58.6,57.5,30.06,SSE,158,0.0,0.0,96,0.00,,---,0.00,VWS V14.00,2013-09-30 02:45:00,
2013-09-29 22:50:00,58.6,57.5,30.06,SSE,158,0.0,0.0,96,0.00,,---,0.00,VWS V14.00,2013-09-30 02:50:00,
2013-09-29 22:55:00,58.6,57.5,30.06,SSE,158,0.0,0.0,96,0.00,,---,0.00,VWS V14.00,2013-09-30 02:55:00,
2013-09-29 23:00:00,58.6,57.5,30.06,SSE,158,0.0,0.0,96,0.00,,---,0.00,VWS V14.00,2013-09-30 03:00:00,
2013-09-29 23:05:00,58.6,57.5,30.06,SSE,158,0.0,0.0,96,0.00,,---,0.00,VWS V14.00,2013-09-30 03:05:00,
2013-09-29 23:10:00,58.8,58.0,30.06,SSE,158,0.0,0.0,97,0.00,,---,0.00,VWS V14.00,2013-09-30 03:10:00,
2013-09-29 23:15:00,58.8,58.0,30.06,SSE,158,0.0,0.0,97,0.00,,---,0.00,VWS V14.00,2013-09-30 03:15:00,
2013-09-29 23:20:00,58.8,58.0,30.06,SSE,158,0.0,0.0,97,0.00,,---,0.00,VWS V14.00,2013-09-30 03:20:00,
2013-09-29 23:25:00,58.8,58.0,30.06,SSE,158,0.0,0.0,97,0.00,,---,0.00,VWS V14.00,2013-09-30 03:25:00,
2013-09-29 23:30:00,58.8,58.0,30.06,SSE,158,0.0,0.0,97,0.00,,---,0.00,VWS V14.00,2013-09-30 03:30:00,
2013-09-29 23:35:00,58.8,58.0,30.06,SSE,158,0.0,0.0,97,0.00,,---,0.00,VWS V14.00,2013-09-30 03:35:00,
2013-09-29 23:40:00,58.8,58.0,30.06,SSE,158,0.0,0.0,97,0.00,,---,0.00,VWS V14.00,2013-09-30 03:40:00,
2013-09-29 23:45:00,58.8,58.0,30.06,SSE,158,0.0,0.0,97,0.00,,---,0.00,VWS V14.00,2013-09-30 03:45:00,
2013-09-29 23:50:00,58.8,58.0,30.06,SSE,158,0.0,0.0,97,0.00,,---,0.00,VWS V14.00,2013-09-30 03:50:00,
2013-09-29 23:55:00,58.8,58.0,30.06,SSE,158,0.0,0.0,97,0.00,,---,0.00,VWS V14.00,2013-09-30 03:55:00,